High Roller — WDD2839 — position and weather

sailwx.info

Track history (hours):
 
Tides and Currents Weather Stations Pressure Air Temp Water Temp Dewpoint Dewpoint Depression Visibility Wind Speed Wind Dir Waves Ship Positions

High Roller

Owner: HAYS TUG & LAUNCH SERVICE INC, WALLINGFORD, PA. More information available from US FCC via Universal Licensing System and Coast Guard Vessel Documentation Center.

Last reported at 2017-Sep-21 18:53 UTC. Time now 2017-Sep-25 00:43 UTC.
Position N 39°50' W 075°23'.

Length 33 m.

Type: Tug. MMSI: 367120550.

Date/timePositionNaut miles runAvg speedWind from/ knotsBaromVisibWave heightAir tempDewpointWater temp
2017-Sep-21 18:53N 39°50' W 075°23'2 4.2
2017-Sep-21 18:30N 39°50' W 075°21'4 8.3
2017-Sep-21 18:00N 39°51' W 075°16'4 8.3
2017-Sep-21 17:30N 39°53' W 075°11'1 2.8
2017-Sep-21 17:00N 39°52' W 075°13'5 9.2
2017-Sep-21 16:30N 39°51' W 075°18'5 9.2
2017-Sep-21 16:00N 39°49' W 075°24'1 2.0
2017-Sep-21 15:30N 39°50' W 075°23'0 0.1
2017-Sep-21 15:01N 39°50' W 075°23'0 0.0
2017-Sep-21 14:31N 39°50' W 075°23'0 0.0
2017-Sep-21 14:01N 39°50' W 075°23'0 0.1
2017-Sep-21 13:31N 39°50' W 075°23'0 0.0
2017-Sep-21 13:01N 39°50' W 075°23'0 0.2
2017-Sep-21 12:31N 39°50' W 075°23'1 2.5
2017-Sep-21 12:01N 39°50' W 075°22'1 2.4
2017-Sep-21 11:31N 39°50' W 075°23'0 0.2
2017-Sep-21 11:01N 39°50' W 075°23'0 0.0
2017-Sep-21 10:31N 39°50' W 075°23'0 0.0
2017-Sep-20 23:13N 39°50' W 075°23'0 0.1
2017-Sep-20 23:01N 39°50' W 075°23'0 0.0
2017-Sep-20 22:30N 39°50' W 075°23'3 5.9
2017-Sep-20 22:00N 39°51' W 075°20'5 9.5
2017-Sep-20 21:30N 39°52' W 075°14'5 9.0
2017-Sep-20 21:01N 39°54' W 075°08'4 8.7
2017-Sep-20 20:30N 39°58' W 075°07'4 8.1
2017-Sep-20 20:00N 40°00' W 075°03'4 7.7
2017-Sep-20 19:30N 40°03' W 074°59'4 7.2
2017-Sep-20 19:00N 40°04' W 074°55'4 7.1
2017-Sep-20 18:30N 40°06' W 074°51'2 3.9
2017-Sep-20 17:52N 40°07' W 074°48'1 1.5
2017-Sep-20 17:30N 40°07' W 074°47'2 1.7
2017-Sep-20 16:29N 40°08' W 074°45'2 4.4
2017-Sep-20 15:59N 40°07' W 074°48'1 3.0
2017-Sep-20 15:30N 40°07' W 074°50'4 8.0
2017-Sep-20 15:01N 40°05' W 074°53'7 7.4
2017-Sep-20 14:01N 40°01' W 075°02'3 6.7
2017-Sep-20 13:30N 39°59' W 075°05'3 6.3
2017-Sep-20 13:01N 39°57' W 075°08'3 6.7
2017-Sep-20 12:30N 39°53' W 075°08'3 6.2
2017-Sep-20 12:00N 39°52' W 075°12'3 6.5
2017-Sep-20 11:30N 39°51' W 075°16'3 6.3
2017-Sep-20 11:01N 39°51' W 075°20'3 5.2
2017-Sep-20 10:31N 39°50' W 075°23'0 0.0
2017-Sep-20 10:01N 39°50' W 075°23'0 0.0
2017-Sep-20 09:30N 39°50' W 075°23'0 0.0
2017-Sep-19 21:46N 39°50' W 075°23'2 9.4
2017-Sep-19 21:30N 39°51' W 075°20'611.5
2017-Sep-19 21:01N 39°52' W 075°13'2 3.4
2017-Sep-19 20:31N 39°54' W 075°12'2 4.8
2017-Sep-19 20:01N 39°52' W 075°14'4 7.2
2017-Sep-19 19:30N 39°51' W 075°18'4 7.4
2017-Sep-19 19:01N 39°49' W 075°23'4 7.9
2017-Sep-19 18:30N 39°47' W 075°27'4 8.2
2017-Sep-19 18:01N 39°44' W 075°30'2 3.2
2017-Sep-19 17:30N 39°42' W 075°31'0 0.3
2017-Sep-19 17:01N 39°42' W 075°30'0 0.1
2017-Sep-19 16:30N 39°42' W 075°30'0 0.0
2017-Sep-19 16:01N 39°42' W 075°30'0 0.1
2017-Sep-19 15:31N 39°42' W 075°30'0 0.0
2017-Sep-19 15:01N 39°42' W 075°30'0 0.0
2017-Sep-19 14:31N 39°42' W 075°30'0 0.0
2017-Sep-19 14:01N 39°42' W 075°30'0 0.0
2017-Sep-19 13:31N 39°42' W 075°30'0 0.1
2017-Sep-19 13:01N 39°42' W 075°30'0 0.1
2017-Sep-19 12:31N 39°42' W 075°30'0 0.5
2017-Sep-19 12:00N 39°42' W 075°31'0 0.3
2017-Sep-19 11:30N 39°42' W 075°30'0 0.0
2017-Sep-19 11:00N 39°42' W 075°30'0 0.0
2017-Sep-19 10:31N 39°42' W 075°30'0 0.0
2017-Sep-19 10:00N 39°42' W 075°31'0 0.0
2017-Sep-19 09:30N 39°42' W 075°31'0 0.1
2017-Sep-19 09:00N 39°42' W 075°31'0 0.0
2017-Sep-19 08:30N 39°42' W 075°31'0 0.0
2017-Sep-19 08:00N 39°42' W 075°31'0 0.1
2017-Sep-19 07:30N 39°42' W 075°31'0 0.5
2017-Sep-19 07:00N 39°42' W 075°31'0 0.0
2017-Sep-19 06:30N 39°42' W 075°31'1 1.1
2017-Sep-19 06:00N 39°43' W 075°31'3 6.6
2017-Sep-19 05:30N 39°46' W 075°29'4 7.2
2017-Sep-19 05:01N 39°48' W 075°25'3 6.3
2017-Sep-19 04:31N 39°50' W 075°22'3 5.1
2017-Sep-19 04:01N 39°51' W 075°19'3 5.1
2017-Sep-19 03:31N 39°51' W 075°16'3 5.4
2017-Sep-19 03:01N 39°52' W 075°13'1 2.6
2017-Sep-19 02:30N 39°54' W 075°12'4 9.0
2017-Sep-19 02:01N 39°51' W 075°16'510.6
2017-Sep-19 01:31N 39°50' W 075°23'  
2017-Sep-15 13:52N 39°50' W 075°23'3 9.1
2017-Sep-15 13:30N 39°51' W 075°19'4 8.4
2017-Sep-15 13:01N 39°51' W 075°14'0 0.0
2017-Sep-15 12:31N 39°51' W 075°14'0 0.1
2017-Sep-15 12:01N 39°51' W 075°14'2 3.2
2017-Sep-15 11:30N 39°51' W 075°16'3 5.8
2017-Sep-15 11:01N 39°51' W 075°19'2 3.7
2017-Sep-15 10:31N 39°50' W 075°22'0 0.0
2017-Sep-15 10:01N 39°50' W 075°22'0 0.0
2017-Sep-15 09:30N 39°50' W 075°22'1 2.6
2017-Sep-15 09:00N 39°50' W 075°23'0 0.0
2017-Sep-14 21:56N 39°50' W 075°23'3 6.4
2017-Sep-14 21:31N 39°51' W 075°20'4 8.4
2017-Sep-14 21:01N 39°51' W 075°15'5 9.2
2017-Sep-14 20:31N 39°53' W 075°09'1 1.7
2017-Sep-14 20:01N 39°54' W 075°08'0 0.4
2017-Sep-14 19:31N 39°54' W 075°08'0 0.0
2017-Sep-14 19:01N 39°54' W 075°08'0 0.0
2017-Sep-14 18:30N 39°54' W 075°08'0 0.0
2017-Sep-14 18:01N 39°54' W 075°08'0 0.0
2017-Sep-14 17:31N 39°54' W 075°08'0 0.1
2017-Sep-14 17:01N 39°54' W 075°08'3 6.3
2017-Sep-14 16:31N 39°53' W 075°12'3 6.7
2017-Sep-14 16:01N 39°51' W 075°16'4 8.2
2017-Sep-14 15:31N 39°51' W 075°21'2 3.6
2017-Sep-14 15:00N 39°49' W 075°23'2 3.5
2017-Sep-14 14:30N 39°48' W 075°24'1 2.8
2017-Sep-14 14:01N 39°49' W 075°23'0 0.9
2017-Sep-14 13:30N 39°50' W 075°23'0 0.0
2017-Sep-14 13:00N 39°50' W 075°23'0 0.0
2017-Sep-14 12:30N 39°50' W 075°23'2 3.5
2017-Sep-14 12:00N 39°48' W 075°24'1 1.5
2017-Sep-14 11:30N 39°49' W 075°24'1 0.1
2017-Sep-13 18:39N 39°50' W 075°23'0 0.2
2017-Sep-13 18:30N 39°50' W 075°23'5 9.5
2017-Sep-13 18:00N 39°51' W 075°17'510.4
2017-Sep-13 17:30N 39°53' W 075°11'2 4.2
2017-Sep-13 17:00N 39°54' W 075°08'2 3.1
2017-Sep-13 16:30N 39°53' W 075°10'3 6.4
2017-Sep-13 16:00N 39°52' W 075°14'3 6.6
2017-Sep-13 15:30N 39°51' W 075°18'3 6.2
2017-Sep-13 15:00N 39°50' W 075°22'2 4.4
2017-Sep-13 14:30N 39°49' W 075°24'0 0.0
2017-Sep-13 14:00N 39°49' W 075°24'1 2.7
2017-Sep-13 13:30N 39°50' W 075°23'0 0.0
2017-Sep-13 13:00N 39°50' W 075°23'0 0.0
2017-Sep-13 12:31N 39°50' W 075°23'0 0.0
2017-Sep-13 12:00N 39°50' W 075°23'0 0.0
2017-Sep-13 11:30N 39°50' W 075°23'0 0.0
2017-Sep-13 11:01N 39°50' W 075°23'0 0.0
2017-Sep-13 10:31N 39°50' W 075°23'0 0.0
2017-Sep-13 10:00N 39°50' W 075°23'0 0.8
2017-Sep-13 09:30N 39°49' W 075°23'1 1.5
2017-Sep-13 09:00N 39°49' W 075°24'0 0.9
2017-Sep-13 08:31N 39°49' W 075°24'2 4.4
2017-Sep-13 08:01N 39°50' W 075°21'3 5.4
2017-Sep-13 07:30N 39°51' W 075°18'3 6.2
2017-Sep-13 07:00N 39°52' W 075°14'4 7.2
2017-Sep-13 06:31N 39°53' W 075°09'4 7.0
2017-Sep-13 06:00N 39°56' W 075°08'4 7.5
2017-Sep-13 05:30N 39°59' W 075°05'1 2.0
2017-Sep-13 05:00N 39°58' W 075°06'4 7.9
2017-Sep-13 04:31N 39°55' W 075°08'4 7.0
2017-Sep-13 04:00N 39°53' W 075°12'1 2.3
2017-Sep-13 03:30N 39°54' W 075°13'1 1.6
2017-Sep-13 03:00N 39°54' W 075°12'3 5.3
2017-Sep-13 02:30N 39°53' W 075°08'4 8.5
2017-Sep-13 02:00N 39°58' W 075°08'3 5.7
2017-Sep-13 01:30N 39°59' W 075°05'0 0.7
2017-Sep-13 01:01N 39°59' W 075°04'1 1.6
2017-Sep-13 00:31N 39°59' W 075°05'3 5.1
2017-Sep-13 00:00N 39°57' W 075°08'3 5.6
2017-Sep-12 23:30N 39°54' W 075°08'1 1.8
2017-Sep-12 23:00N 39°54' W 075°09'0 0.0
2017-Sep-12 22:30N 39°54' W 075°09'0 0.0
2017-Sep-12 22:00N 39°54' W 075°09'0 0.0
2017-Sep-12 21:30N 39°54' W 075°09'0 0.0
2017-Sep-12 21:00N 39°54' W 075°09'0 0.0
2017-Sep-12 20:30N 39°54' W 075°09'4 8.5
2017-Sep-12 20:00N 39°52' W 075°13'611.3
2017-Sep-12 19:31N 39°51' W 075°21'2 4.2
2017-Sep-12 19:01N 39°50' W 075°23'2 3.6
2017-Sep-12 18:30N 39°48' W 075°25'0 0.4
2017-Sep-12 18:00N 39°48' W 075°24'0 0.1
2017-Sep-12 17:31N 39°48' W 075°24'0 0.1
2017-Sep-12 17:00N 39°48' W 075°24'0 0.1
2017-Sep-12 16:30N 39°48' W 075°24'0 0.1
2017-Sep-12 16:00N 39°48' W 075°24'0 0.1
2017-Sep-12 15:30N 39°48' W 075°24'0 0.0
2017-Sep-12 15:01N 39°48' W 075°24'0 0.0
2017-Sep-12 14:30N 39°48' W 075°24'0 0.1
2017-Sep-12 14:00N 39°48' W 075°24'0 0.1
2017-Sep-12 13:31N 39°48' W 075°24'0 0.3
2017-Sep-12 13:00N 39°48' W 075°24'0 0.1
2017-Sep-12 12:30N 39°48' W 075°24'2 0.6
2017-Sep-12 09:16N 39°50' W 075°23'0 0.0
2017-Sep-12 09:00N 39°50' W 075°23'0 0.0
2017-Sep-12 08:30N 39°50' W 075°23'0 0.0
2017-Sep-12 08:00N 39°50' W 075°23'0 0.0
2017-Sep-12 07:30N 39°50' W 075°23'0 0.0
2017-Sep-12 07:01N 39°50' W 075°23'0 0.0
2017-Sep-12 06:30N 39°50' W 075°23'0 0.0
2017-Sep-12 06:00N 39°50' W 075°23'0 0.0
2017-Sep-12 05:31N 39°50' W 075°23'0 0.0
2017-Sep-12 05:01N 39°50' W 075°23'0 0.0
2017-Sep-12 04:30N 39°50' W 075°23'0 0.0
2017-Sep-12 04:00N 39°50' W 075°23'0 0.0
2017-Sep-12 03:30N 39°50' W 075°23'0 0.0
2017-Sep-12 03:01N 39°50' W 075°23'0 0.0
2017-Sep-12 02:30N 39°50' W 075°23'0 0.0
2017-Sep-12 02:00N 39°50' W 075°23'0 0.0
2017-Sep-12 01:30N 39°50' W 075°23'0 0.0
2017-Sep-12 01:01N 39°50' W 075°23'0 0.0
2017-Sep-12 00:30N 39°50' W 075°23'0 0.0
2017-Sep-12 00:00N 39°50' W 075°23'0 0.0
2017-Sep-11 23:31N 39°50' W 075°23'0 0.0
2017-Sep-11 23:00N 39°50' W 075°23'0 0.0
2017-Sep-11 22:30N 39°50' W 075°23'0 0.0
2017-Sep-11 22:00N 39°50' W 075°23'0 0.0
2017-Sep-11 21:30N 39°50' W 075°23'0 0.0
2017-Sep-11 21:00N 39°50' W 075°23'0 0.0
2017-Sep-11 20:30N 39°50' W 075°23'0 0.0
2017-Sep-11 20:00N 39°50' W 075°23'0 0.0
2017-Sep-11 19:30N 39°50' W 075°23'0 0.0
2017-Sep-11 19:00N 39°50' W 075°23'  
Track history (hours):
 
Tides and Currents Weather Stations Pressure Air Temp Water Temp Dewpoint Dewpoint Depression Visibility Wind Speed Wind Dir Waves Ship Positions

High Roller

Owner: HAYS TUG & LAUNCH SERVICE INC, WALLINGFORD, PA. More information available from US FCC via Universal Licensing System and Coast Guard Vessel Documentation Center.

Last reported at 2017-Sep-21 18:53 UTC. Time now 2017-Sep-25 00:43 UTC.
Position N 39°50' W 075°23'.

Length 33 m.

Type: Tug. MMSI: 367120550.

Date/timePositionNaut miles runAvg speedWind from/ knotsBaromVisibWave heightAir tempDewpointWater temp
2017-Sep-21 18:53N 39°50' W 075°23'2 4.2
2017-Sep-21 18:30N 39°50' W 075°21'4 8.3
2017-Sep-21 18:00N 39°51' W 075°16'4 8.3
2017-Sep-21 17:30N 39°53' W 075°11'1 2.8
2017-Sep-21 17:00N 39°52' W 075°13'5 9.2
2017-Sep-21 16:30N 39°51' W 075°18'5 9.2
2017-Sep-21 16:00N 39°49' W 075°24'1 2.0
2017-Sep-21 15:30N 39°50' W 075°23'0 0.1
2017-Sep-21 15:01N 39°50' W 075°23'0 0.0
2017-Sep-21 14:31N 39°50' W 075°23'0 0.0
2017-Sep-21 14:01N 39°50' W 075°23'0 0.1
2017-Sep-21 13:31N 39°50' W 075°23'0 0.0
2017-Sep-21 13:01N 39°50' W 075°23'0 0.2
2017-Sep-21 12:31N 39°50' W 075°23'1 2.5
2017-Sep-21 12:01N 39°50' W 075°22'1 2.4
2017-Sep-21 11:31N 39°50' W 075°23'0 0.2
2017-Sep-21 11:01N 39°50' W 075°23'0 0.0
2017-Sep-21 10:31N 39°50' W 075°23'0 0.0
2017-Sep-20 23:13N 39°50' W 075°23'0 0.1
2017-Sep-20 23:01N 39°50' W 075°23'0 0.0
2017-Sep-20 22:30N 39°50' W 075°23'3 5.9
2017-Sep-20 22:00N 39°51' W 075°20'5 9.5
2017-Sep-20 21:30N 39°52' W 075°14'5 9.0
2017-Sep-20 21:01N 39°54' W 075°08'4 8.7
2017-Sep-20 20:30N 39°58' W 075°07'4 8.1
2017-Sep-20 20:00N 40°00' W 075°03'4 7.7
2017-Sep-20 19:30N 40°03' W 074°59'4 7.2
2017-Sep-20 19:00N 40°04' W 074°55'4 7.1
2017-Sep-20 18:30N 40°06' W 074°51'2 3.9
2017-Sep-20 17:52N 40°07' W 074°48'1 1.5
2017-Sep-20 17:30N 40°07' W 074°47'2 1.7
2017-Sep-20 16:29N 40°08' W 074°45'2 4.4
2017-Sep-20 15:59N 40°07' W 074°48'1 3.0
2017-Sep-20 15:30N 40°07' W 074°50'4 8.0
2017-Sep-20 15:01N 40°05' W 074°53'7 7.4
2017-Sep-20 14:01N 40°01' W 075°02'3 6.7
2017-Sep-20 13:30N 39°59' W 075°05'3 6.3
2017-Sep-20 13:01N 39°57' W 075°08'3 6.7
2017-Sep-20 12:30N 39°53' W 075°08'3 6.2
2017-Sep-20 12:00N 39°52' W 075°12'3 6.5
2017-Sep-20 11:30N 39°51' W 075°16'3 6.3
2017-Sep-20 11:01N 39°51' W 075°20'3 5.2
2017-Sep-20 10:31N 39°50' W 075°23'0 0.0
2017-Sep-20 10:01N 39°50' W 075°23'0 0.0
2017-Sep-20 09:30N 39°50' W 075°23'0 0.0
2017-Sep-19 21:46N 39°50' W 075°23'2 9.4
2017-Sep-19 21:30N 39°51' W 075°20'611.5
2017-Sep-19 21:01N 39°52' W 075°13'2 3.4
2017-Sep-19 20:31N 39°54' W 075°12'2 4.8
2017-Sep-19 20:01N 39°52' W 075°14'4 7.2
2017-Sep-19 19:30N 39°51' W 075°18'4 7.4
2017-Sep-19 19:01N 39°49' W 075°23'4 7.9
2017-Sep-19 18:30N 39°47' W 075°27'4 8.2
2017-Sep-19 18:01N 39°44' W 075°30'2 3.2
2017-Sep-19 17:30N 39°42' W 075°31'0 0.3
2017-Sep-19 17:01N 39°42' W 075°30'0 0.1
2017-Sep-19 16:30N 39°42' W 075°30'0 0.0
2017-Sep-19 16:01N 39°42' W 075°30'0 0.1
2017-Sep-19 15:31N 39°42' W 075°30'0 0.0
2017-Sep-19 15:01N 39°42' W 075°30'0 0.0
2017-Sep-19 14:31N 39°42' W 075°30'0 0.0
2017-Sep-19 14:01N 39°42' W 075°30'0 0.0
2017-Sep-19 13:31N 39°42' W 075°30'0 0.1
2017-Sep-19 13:01N 39°42' W 075°30'0 0.1
2017-Sep-19 12:31N 39°42' W 075°30'0 0.5
2017-Sep-19 12:00N 39°42' W 075°31'0 0.3
2017-Sep-19 11:30N 39°42' W 075°30'0 0.0
2017-Sep-19 11:00N 39°42' W 075°30'0 0.0
2017-Sep-19 10:31N 39°42' W 075°30'0 0.0
2017-Sep-19 10:00N 39°42' W 075°31'0 0.0
2017-Sep-19 09:30N 39°42' W 075°31'0 0.1
2017-Sep-19 09:00N 39°42' W 075°31'0 0.0
2017-Sep-19 08:30N 39°42' W 075°31'0 0.0
2017-Sep-19 08:00N 39°42' W 075°31'0 0.1
2017-Sep-19 07:30N 39°42' W 075°31'0 0.5
2017-Sep-19 07:00N 39°42' W 075°31'0 0.0
2017-Sep-19 06:30N 39°42' W 075°31'1 1.1
2017-Sep-19 06:00N 39°43' W 075°31'3 6.6
2017-Sep-19 05:30N 39°46' W 075°29'4 7.2
2017-Sep-19 05:01N 39°48' W 075°25'3 6.3
2017-Sep-19 04:31N 39°50' W 075°22'3 5.1
2017-Sep-19 04:01N 39°51' W 075°19'3 5.1
2017-Sep-19 03:31N 39°51' W 075°16'3 5.4
2017-Sep-19 03:01N 39°52' W 075°13'1 2.6
2017-Sep-19 02:30N 39°54' W 075°12'4 9.0
2017-Sep-19 02:01N 39°51' W 075°16'510.6
2017-Sep-19 01:31N 39°50' W 075°23'  
2017-Sep-15 13:52N 39°50' W 075°23'3 9.1
2017-Sep-15 13:30N 39°51' W 075°19'4 8.4
2017-Sep-15 13:01N 39°51' W 075°14'0 0.0
2017-Sep-15 12:31N 39°51' W 075°14'0 0.1
2017-Sep-15 12:01N 39°51' W 075°14'2 3.2
2017-Sep-15 11:30N 39°51' W 075°16'3 5.8
2017-Sep-15 11:01N 39°51' W 075°19'2 3.7
2017-Sep-15 10:31N 39°50' W 075°22'0 0.0
2017-Sep-15 10:01N 39°50' W 075°22'0 0.0
2017-Sep-15 09:30N 39°50' W 075°22'1 2.6
2017-Sep-15 09:00N 39°50' W 075°23'0 0.0
2017-Sep-14 21:56N 39°50' W 075°23'3 6.4
2017-Sep-14 21:31N 39°51' W 075°20'4 8.4
2017-Sep-14 21:01N 39°51' W 075°15'5 9.2
2017-Sep-14 20:31N 39°53' W 075°09'1 1.7
2017-Sep-14 20:01N 39°54' W 075°08'0 0.4
2017-Sep-14 19:31N 39°54' W 075°08'0 0.0
2017-Sep-14 19:01N 39°54' W 075°08'0 0.0
2017-Sep-14 18:30N 39°54' W 075°08'0 0.0
2017-Sep-14 18:01N 39°54' W 075°08'0 0.0
2017-Sep-14 17:31N 39°54' W 075°08'0 0.1
2017-Sep-14 17:01N 39°54' W 075°08'3 6.3
2017-Sep-14 16:31N 39°53' W 075°12'3 6.7
2017-Sep-14 16:01N 39°51' W 075°16'4 8.2
2017-Sep-14 15:31N 39°51' W 075°21'2 3.6
2017-Sep-14 15:00N 39°49' W 075°23'2 3.5
2017-Sep-14 14:30N 39°48' W 075°24'1 2.8
2017-Sep-14 14:01N 39°49' W 075°23'0 0.9
2017-Sep-14 13:30N 39°50' W 075°23'0 0.0
2017-Sep-14 13:00N 39°50' W 075°23'0 0.0
2017-Sep-14 12:30N 39°50' W 075°23'2 3.5
2017-Sep-14 12:00N 39°48' W 075°24'1 1.5
2017-Sep-14 11:30N 39°49' W 075°24'1 0.1
2017-Sep-13 18:39N 39°50' W 075°23'0 0.2
2017-Sep-13 18:30N 39°50' W 075°23'5 9.5
2017-Sep-13 18:00N 39°51' W 075°17'510.4
2017-Sep-13 17:30N 39°53' W 075°11'2 4.2
2017-Sep-13 17:00N 39°54' W 075°08'2 3.1
2017-Sep-13 16:30N 39°53' W 075°10'3 6.4
2017-Sep-13 16:00N 39°52' W 075°14'3 6.6
2017-Sep-13 15:30N 39°51' W 075°18'3 6.2
2017-Sep-13 15:00N 39°50' W 075°22'2 4.4
2017-Sep-13 14:30N 39°49' W 075°24'0 0.0
2017-Sep-13 14:00N 39°49' W 075°24'1 2.7
2017-Sep-13 13:30N 39°50' W 075°23'0 0.0
2017-Sep-13 13:00N 39°50' W 075°23'0 0.0
2017-Sep-13 12:31N 39°50' W 075°23'0 0.0
2017-Sep-13 12:00N 39°50' W 075°23'0 0.0
2017-Sep-13 11:30N 39°50' W 075°23'0 0.0
2017-Sep-13 11:01N 39°50' W 075°23'0 0.0
2017-Sep-13 10:31N 39°50' W 075°23'0 0.0
2017-Sep-13 10:00N 39°50' W 075°23'0 0.8
2017-Sep-13 09:30N 39°49' W 075°23'1 1.5
2017-Sep-13 09:00N 39°49' W 075°24'0 0.9
2017-Sep-13 08:31N 39°49' W 075°24'2 4.4
2017-Sep-13 08:01N 39°50' W 075°21'3 5.4
2017-Sep-13 07:30N 39°51' W 075°18'3 6.2
2017-Sep-13 07:00N 39°52' W 075°14'4 7.2
2017-Sep-13 06:31N 39°53' W 075°09'4 7.0
2017-Sep-13 06:00N 39°56' W 075°08'4 7.5
2017-Sep-13 05:30N 39°59' W 075°05'1 2.0
2017-Sep-13 05:00N 39°58' W 075°06'4 7.9
2017-Sep-13 04:31N 39°55' W 075°08'4 7.0
2017-Sep-13 04:00N 39°53' W 075°12'1 2.3
2017-Sep-13 03:30N 39°54' W 075°13'1 1.6
2017-Sep-13 03:00N 39°54' W 075°12'3 5.3
2017-Sep-13 02:30N 39°53' W 075°08'4 8.5
2017-Sep-13 02:00N 39°58' W 075°08'3 5.7
2017-Sep-13 01:30N 39°59' W 075°05'0 0.7
2017-Sep-13 01:01N 39°59' W 075°04'1 1.6
2017-Sep-13 00:31N 39°59' W 075°05'3 5.1
2017-Sep-13 00:00N 39°57' W 075°08'3 5.6
2017-Sep-12 23:30N 39°54' W 075°08'1 1.8
2017-Sep-12 23:00N 39°54' W 075°09'0 0.0
2017-Sep-12 22:30N 39°54' W 075°09'0 0.0
2017-Sep-12 22:00N 39°54' W 075°09'0 0.0
2017-Sep-12 21:30N 39°54' W 075°09'0 0.0
2017-Sep-12 21:00N 39°54' W 075°09'0 0.0
2017-Sep-12 20:30N 39°54' W 075°09'4 8.5
2017-Sep-12 20:00N 39°52' W 075°13'611.3
2017-Sep-12 19:31N 39°51' W 075°21'2 4.2
2017-Sep-12 19:01N 39°50' W 075°23'2 3.6
2017-Sep-12 18:30N 39°48' W 075°25'0 0.4
2017-Sep-12 18:00N 39°48' W 075°24'0 0.1
2017-Sep-12 17:31N 39°48' W 075°24'0 0.1
2017-Sep-12 17:00N 39°48' W 075°24'0 0.1
2017-Sep-12 16:30N 39°48' W 075°24'0 0.1
2017-Sep-12 16:00N 39°48' W 075°24'0 0.1
2017-Sep-12 15:30N 39°48' W 075°24'0 0.0
2017-Sep-12 15:01N 39°48' W 075°24'0 0.0
2017-Sep-12 14:30N 39°48' W 075°24'0 0.1
2017-Sep-12 14:00N 39°48' W 075°24'0 0.1
2017-Sep-12 13:31N 39°48' W 075°24'0 0.3
2017-Sep-12 13:00N 39°48' W 075°24'0 0.1
2017-Sep-12 12:30N 39°48' W 075°24'2 0.6
2017-Sep-12 09:16N 39°50' W 075°23'0 0.0
2017-Sep-12 09:00N 39°50' W 075°23'0 0.0
2017-Sep-12 08:30N 39°50' W 075°23'0 0.0
2017-Sep-12 08:00N 39°50' W 075°23'0 0.0
2017-Sep-12 07:30N 39°50' W 075°23'0 0.0
2017-Sep-12 07:01N 39°50' W 075°23'0 0.0
2017-Sep-12 06:30N 39°50' W 075°23'0 0.0
2017-Sep-12 06:00N 39°50' W 075°23'0 0.0
2017-Sep-12 05:31N 39°50' W 075°23'0 0.0
2017-Sep-12 05:01N 39°50' W 075°23'0 0.0
2017-Sep-12 04:30N 39°50' W 075°23'0 0.0
2017-Sep-12 04:00N 39°50' W 075°23'0 0.0
2017-Sep-12 03:30N 39°50' W 075°23'0 0.0
2017-Sep-12 03:01N 39°50' W 075°23'0 0.0
2017-Sep-12 02:30N 39°50' W 075°23'0 0.0
2017-Sep-12 02:00N 39°50' W 075°23'0 0.0
2017-Sep-12 01:30N 39°50' W 075°23'0 0.0
2017-Sep-12 01:01N 39°50' W 075°23'0 0.0
2017-Sep-12 00:30N 39°50' W 075°23'0 0.0
2017-Sep-12 00:00N 39°50' W 075°23'0 0.0
2017-Sep-11 23:31N 39°50' W 075°23'0 0.0
2017-Sep-11 23:00N 39°50' W 075°23'0 0.0
2017-Sep-11 22:30N 39°50' W 075°23'0 0.0
2017-Sep-11 22:00N 39°50' W 075°23'0 0.0
2017-Sep-11 21:30N 39°50' W 075°23'0 0.0
2017-Sep-11 21:00N 39°50' W 075°23'0 0.0
2017-Sep-11 20:30N 39°50' W 075°23'0 0.0
2017-Sep-11 20:00N 39°50' W 075°23'0 0.0
2017-Sep-11 19:30N 39°50' W 075°23'0 0.0
2017-Sep-11 19:00N 39°50' W 075°23'  

Dump ship's entire track history